sensor_id;sensor_type;location;lat;lon;timestamp;temperature;humidity
23723;DHT22;12042;52.136;5.584;2022-07-18T05:09:34;17.20;99.90
23723;DHT22;12042;52.136;5.584;2022-07-18T05:12:00;17.40;99.90
23723;DHT22;12042;52.136;5.584;2022-07-18T05:14:26;17.30;99.90
23723;DHT22;12042;52.136;5.584;2022-07-18T05:16:52;17.30;99.90
23723;DHT22;12042;52.136;5.584;2022-07-18T05:19:17;17.40;99.90
23723;DHT22;12042;52.136;5.584;2022-07-18T05:21:43;17.90;99.90
23723;DHT22;12042;52.136;5.584;2022-07-18T05:24:10;17.70;99.90
23723;DHT22;12042;52.136;5.584;2022-07-18T05:26:35;17.90;99.90
23723;DHT22;12042;52.136;5.584;2022-07-18T05:29:01;18.00;99.90
23723;DHT22;12042;52.136;5.584;2022-07-18T05:31:27;18.00;99.90
23723;DHT22;12042;52.136;5.584;2022-07-18T05:33:52;18.10;99.90
23723;DHT22;12042;52.136;5.584;2022-07-18T05:36:18;17.60;99.90
23723;DHT22;12042;52.136;5.584;2022-07-18T05:38:43;17.50;99.90
23723;DHT22;12042;52.136;5.584;2022-07-18T05:41:09;17.60;99.90
23723;DHT22;12042;52.136;5.584;2022-07-18T05:43:35;17.90;99.90
23723;DHT22;12042;52.136;5.584;2022-07-18T05:46:00;18.20;99.90
23723;DHT22;12042;52.136;5.584;2022-07-18T05:48:26;18.20;99.90
23723;DHT22;12042;52.136;5.584;2022-07-18T05:50:52;18.10;99.90
23723;DHT22;12042;52.136;5.584;2022-07-18T05:53:17;18.00;99.90
23723;DHT22;12042;52.136;5.584;2022-07-18T05:55:43;17.90;99.90
23723;DHT22;12042;52.136;5.584;2022-07-18T05:58:09;18.40;99.90
23723;DHT22;12042;52.136;5.584;2022-07-18T06:00:34;18.00;99.90
23723;DHT22;12042;52.136;5.584;2022-07-18T06:03:00;18.30;99.90
23723;DHT22;12042;52.136;5.584;2022-07-18T06:05:26;18.50;99.90
23723;DHT22;12042;52.136;5.584;2022-07-18T06:07:53;18.80;99.90
23723;DHT22;12042;52.136;5.584;2022-07-18T06:10:20;18.30;99.90
23723;DHT22;12042;52.136;5.584;2022-07-18T06:12:46;18.50;99.90
23723;DHT22;12042;52.136;5.584;2022-07-18T06:15:12;18.60;99.90
23723;DHT22;12042;52.136;5.584;2022-07-18T06:17:38;18.60;99.90
23723;DHT22;12042;52.136;5.584;2022-07-18T06:20:04;18.60;99.90
23723;DHT22;12042;52.136;5.584;2022-07-18T06:22:31;18.70;99.90
23723;DHT22;12042;52.136;5.584;2022-07-18T06:24:56;18.80;99.90
23723;DHT22;12042;52.136;5.584;2022-07-18T06:27:22;19.10;99.90
23723;DHT22;12042;52.136;5.584;2022-07-18T06:29:47;18.80;99.90
23723;DHT22;12042;52.136;5.584;2022-07-18T06:32:13;19.00;99.90
23723;DHT22;12042;52.136;5.584;2022-07-18T06:34:38;19.00;99.90
23723;DHT22;12042;52.136;5.584;2022-07-18T06:37:04;19.60;99.90
23723;DHT22;12042;52.136;5.584;2022-07-18T06:39:30;19.50;99.90
23723;DHT22;12042;52.136;5.584;2022-07-18T06:41:55;19.40;99.90
23723;DHT22;12042;52.136;5.584;2022-07-18T06:44:21;19.30;99.90
23723;DHT22;12042;52.136;5.584;2022-07-18T06:46:46;20.00;99.90
23723;DHT22;12042;52.136;5.584;2022-07-18T06:49:12;19.70;99.90
23723;DHT22;12042;52.136;5.584;2022-07-18T06:51:37;20.00;99.90
23723;DHT22;12042;52.136;5.584;2022-07-18T06:54:03;20.20;99.90
23723;DHT22;12042;52.136;5.584;2022-07-18T06:56:29;20.20;99.90
23723;DHT22;12042;52.136;5.584;2022-07-18T06:58:54;20.30;99.90
23723;DHT22;12042;52.136;5.584;2022-07-18T07:01:20;20.40;99.90
23723;DHT22;12042;52.136;5.584;2022-07-18T07:03:46;20.40;99.90
23723;DHT22;12042;52.136;5.584;2022-07-18T07:06:12;20.70;99.90
23723;DHT22;12042;52.136;5.584;2022-07-18T07:08:38;20.70;99.90
23723;DHT22;12042;52.136;5.584;2022-07-18T07:11:04;21.00;99.90
23723;DHT22;12042;52.136;5.584;2022-07-18T07:13:30;20.80;99.90
23723;DHT22;12042;52.136;5.584;2022-07-18T07:15:55;21.10;99.90
23723;DHT22;12042;52.136;5.584;2022-07-18T07:18:21;21.40;99.90
23723;DHT22;12042;52.136;5.584;2022-07-18T07:20:47;21.10;99.90
23723;DHT22;12042;52.136;5.584;2022-07-18T07:23:13;21.50;99.90
23723;DHT22;12042;52.136;5.584;2022-07-18T07:25:39;21.50;99.90
23723;DHT22;12042;52.136;5.584;2022-07-18T07:28:06;21.90;99.90
23723;DHT22;12042;52.136;5.584;2022-07-18T07:30:32;21.60;99.90
23723;DHT22;12042;52.136;5.584;2022-07-18T07:32:59;22.20;99.90
23723;DHT22;12042;52.136;5.584;2022-07-18T07:35:25;22.20;99.90
23723;DHT22;12042;52.136;5.584;2022-07-18T07:37:53;22.30;99.90
23723;DHT22;12042;52.136;5.584;2022-07-18T07:40:20;22.40;99.90
23723;DHT22;12042;52.136;5.584;2022-07-18T07:42:46;22.60;99.90
23723;DHT22;12042;52.136;5.584;2022-07-18T07:45:12;22.70;99.90
23723;DHT22;12042;52.136;5.584;2022-07-18T07:47:39;22.90;99.90
23723;DHT22;12042;52.136;5.584;2022-07-18T07:50:06;23.00;99.90
23723;DHT22;12042;52.136;5.584;2022-07-18T07:52:32;22.70;99.90
23723;DHT22;12042;52.136;5.584;2022-07-18T07:54:59;22.90;99.90
23723;DHT22;12042;52.136;5.584;2022-07-18T07:57:25;23.20;99.90
23723;DHT22;12042;52.136;5.584;2022-07-18T07:59:51;23.40;99.90
23723;DHT22;12042;52.136;5.584;2022-07-18T08:02:17;23.60;99.90
23723;DHT22;12042;52.136;5.584;2022-07-18T08:04:43;23.40;99.90
23723;DHT22;12042;52.136;5.584;2022-07-18T08:07:09;24.10;99.90
23723;DHT22;12042;52.136;5.584;2022-07-18T08:09:35;24.40;99.90
23723;DHT22;12042;52.136;5.584;2022-07-18T08:12:01;24.40;99.90
23723;DHT22;12042;52.136;5.584;2022-07-18T08:14:26;24.90;99.90
23723;DHT22;12042;52.136;5.584;2022-07-18T08:16:52;24.80;99.90
23723;DHT22;12042;52.136;5.584;2022-07-18T08:19:17;25.20;99.90
23723;DHT22;12042;52.136;5.584;2022-07-18T08:21:43;25.50;99.90
23723;DHT22;12042;52.136;5.584;2022-07-18T08:24:09;25.90;99.90
23723;DHT22;12042;52.136;5.584;2022-07-18T08:26:34;25.80;99.90
23723;DHT22;12042;52.136;5.584;2022-07-18T08:29:04;26.00;99.90
23723;DHT22;12042;52.136;5.584;2022-07-18T08:31:30;25.90;99.90
23723;DHT22;12042;52.136;5.584;2022-07-18T08:33:55;26.20;99.90
23723;DHT22;12042;52.136;5.584;2022-07-18T08:36:21;26.10;99.90
23723;DHT22;12042;52.136;5.584;2022-07-18T08:38:46;25.80;99.90
23723;DHT22;12042;52.136;5.584;2022-07-18T08:41:12;26.00;99.90
23723;DHT22;12042;52.136;5.584;2022-07-18T08:43:39;26.20;99.90
23723;DHT22;12042;52.136;5.584;2022-07-18T08:46:05;26.40;99.90
23723;DHT22;12042;52.136;5.584;2022-07-18T08:48:32;26.50;99.90
23723;DHT22;12042;52.136;5.584;2022-07-18T08:50:59;26.60;99.90
23723;DHT22;12042;52.136;5.584;2022-07-18T08:53:26;27.00;99.90
23723;DHT22;12042;52.136;5.584;2022-07-18T08:55:52;27.60;99.90
23723;DHT22;12042;52.136;5.584;2022-07-18T08:58:17;27.60;99.90
23723;DHT22;12042;52.136;5.584;2022-07-18T09:00:44;28.10;99.90
23723;DHT22;12042;52.136;5.584;2022-07-18T09:03:10;28.30;99.90
23723;DHT22;12042;52.136;5.584;2022-07-18T09:05:36;28.60;99.90
23723;DHT22;12042;52.136;5.584;2022-07-18T09:08:12;29.00;99.90
23723;DHT22;12042;52.136;5.584;2022-07-18T09:10:50;28.90;99.90
23723;DHT22;12042;52.136;5.584;2022-07-18T09:13:25;29.20;99.90
23723;DHT22;12042;52.136;5.584;2022-07-18T09:16:05;29.60;99.90
23723;DHT22;12042;52.136;5.584;2022-07-18T09:18:39;29.30;99.40
23723;DHT22;12042;52.136;5.584;2022-07-18T09:21:10;29.10;99.90
23723;DHT22;12042;52.136;5.584;2022-07-18T09:23:39;29.40;99.90
23723;DHT22;12042;52.136;5.584;2022-07-18T09:26:06;29.30;99.70
23723;DHT22;12042;52.136;5.584;2022-07-18T09:28:58;29.70;99.00
23723;DHT22;12042;52.136;5.584;2022-07-18T09:31:24;29.70;99.80
23723;DHT22;12042;52.136;5.584;2022-07-18T09:34:01;29.50;97.80
23723;DHT22;12042;52.136;5.584;2022-07-18T09:36:27;29.30;97.90
23723;DHT22;12042;52.136;5.584;2022-07-18T09:38:54;29.30;99.80
23723;DHT22;12042;52.136;5.584;2022-07-18T09:41:28;29.10;99.50
23723;DHT22;12042;52.136;5.584;2022-07-18T09:43:55;29.20;99.80
23723;DHT22;12042;52.136;5.584;2022-07-18T09:46:21;28.90;99.20
23723;DHT22;12042;52.136;5.584;2022-07-18T09:48:47;28.60;99.40
23723;DHT22;12042;52.136;5.584;2022-07-18T09:51:33;28.30;99.90
23723;DHT22;12042;52.136;5.584;2022-07-18T09:53:58;28.50;99.80
23723;DHT22;12042;52.136;5.584;2022-07-18T09:56:26;28.40;99.90
23723;DHT22;12042;52.136;5.584;2022-07-18T09:58:54;28.50;99.90
23723;DHT22;12042;52.136;5.584;2022-07-18T10:01:21;28.50;99.90
23723;DHT22;12042;52.136;5.584;2022-07-18T10:03:47;28.40;98.80
23723;DHT22;12042;52.136;5.584;2022-07-18T10:06:15;28.80;98.80
23723;DHT22;12042;52.136;5.584;2022-07-18T10:08:41;28.80;99.90
23723;DHT22;12042;52.136;5.584;2022-07-18T10:11:07;29.00;99.30
23723;DHT22;12042;52.136;5.584;2022-07-18T10:13:35;29.20;98.80
23723;DHT22;12042;52.136;5.584;2022-07-18T10:16:02;29.20;98.10
23723;DHT22;12042;52.136;5.584;2022-07-18T10:18:31;29.40;99.90
23723;DHT22;12042;52.136;5.584;2022-07-18T10:21:10;29.90;98.30
23723;DHT22;12042;52.136;5.584;2022-07-18T10:23:41;30.00;96.50
23723;DHT22;12042;52.136;5.584;2022-07-18T10:26:16;30.10;97.00
23723;DHT22;12042;52.136;5.584;2022-07-18T10:33:50;30.30;94.50
23723;DHT22;12042;52.136;5.584;2022-07-18T10:36:21;30.60;96.70
23723;DHT22;12042;52.136;5.584;2022-07-18T10:39:10;30.50;96.10
23723;DHT22;12042;52.136;5.584;2022-07-18T10:47:08;31.00;95.40
23723;DHT22;12042;52.136;5.584;2022-07-18T11:00:24;31.70;94.50
23723;DHT22;12042;52.136;5.584;2022-07-18T11:03:10;31.60;95.90
23723;DHT22;12042;52.136;5.584;2022-07-18T11:23:49;32.40;94.40
23723;DHT22;12042;52.136;5.584;2022-07-18T11:26:16;32.60;95.00
23723;DHT22;12042;52.136;5.584;2022-07-18T11:28:42;32.80;94.90
23723;DHT22;12042;52.136;5.584;2022-07-18T11:31:10;32.90;94.00
23723;DHT22;12042;52.136;5.584;2022-07-18T11:33:48;32.90;94.40
23723;DHT22;12042;52.136;5.584;2022-07-18T11:36:17;33.00;93.10
23723;DHT22;12042;52.136;5.584;2022-07-18T11:38:48;32.90;93.40
23723;DHT22;12042;52.136;5.584;2022-07-18T11:41:14;33.00;92.30
23723;DHT22;12042;52.136;5.584;2022-07-18T11:43:40;32.90;93.30
23723;DHT22;12042;52.136;5.584;2022-07-18T11:46:10;32.90;93.40
23723;DHT22;12042;52.136;5.584;2022-07-18T11:48:37;32.90;92.60
23723;DHT22;12042;52.136;5.584;2022-07-18T11:51:14;32.90;92.60
23723;DHT22;12042;52.136;5.584;2022-07-18T11:53:58;32.60;92.10
23723;DHT22;12042;52.136;5.584;2022-07-18T11:56:24;32.70;94.00
23723;DHT22;12042;52.136;5.584;2022-07-18T11:58:50;32.80;93.20
23723;DHT22;12042;52.136;5.584;2022-07-18T12:01:16;33.00;93.50
23723;DHT22;12042;52.136;5.584;2022-07-18T12:03:47;33.40;90.30
23723;DHT22;12042;52.136;5.584;2022-07-18T12:06:16;33.30;91.50
23723;DHT22;12042;52.136;5.584;2022-07-18T12:08:47;33.50;90.00
23723;DHT22;12042;52.136;5.584;2022-07-18T12:11:33;33.30;89.10
23723;DHT22;12042;52.136;5.584;2022-07-18T12:14:13;33.00;87.50
23723;DHT22;12042;52.136;5.584;2022-07-18T12:16:47;32.90;89.10
23723;DHT22;12042;52.136;5.584;2022-07-18T12:19:19;33.00;90.30
23723;DHT22;12042;52.136;5.584;2022-07-18T12:21:56;33.40;91.00
23723;DHT22;12042;52.136;5.584;2022-07-18T12:27:21;33.40;91.00
23723;DHT22;12042;52.136;5.584;2022-07-18T12:29:53;33.40;89.40
23723;DHT22;12042;52.136;5.584;2022-07-18T12:32:23;33.80;87.90
23723;DHT22;12042;52.136;5.584;2022-07-18T12:37:25;34.00;89.10
23723;DHT22;12042;52.136;5.584;2022-07-18T12:39:59;34.20;88.20
23723;DHT22;12042;52.136;5.584;2022-07-18T12:42:39;34.20;89.20
23723;DHT22;12042;52.136;5.584;2022-07-18T12:45:06;34.40;87.10
23723;DHT22;12042;52.136;5.584;2022-07-18T12:47:32;34.50;86.80
23723;DHT22;12042;52.136;5.584;2022-07-18T12:49:58;34.60;87.30
23723;DHT22;12042;52.136;5.584;2022-07-18T12:52:24;34.70;87.40
23723;DHT22;12042;52.136;5.584;2022-07-18T12:54:50;34.30;85.60
23723;DHT22;12042;52.136;5.584;2022-07-18T12:57:16;33.90;87.60
23723;DHT22;12042;52.136;5.584;2022-07-18T12:59:42;34.00;87.80
23723;DHT22;12042;52.136;5.584;2022-07-18T13:02:07;34.20;84.40
23723;DHT22;12042;52.136;5.584;2022-07-18T13:04:33;33.80;84.50
23723;DHT22;12042;52.136;5.584;2022-07-18T13:06:59;33.50;87.30
23723;DHT22;12042;52.136;5.584;2022-07-18T13:09:24;33.80;89.80
23723;DHT22;12042;52.136;5.584;2022-07-18T13:11:50;34.10;84.40
23723;DHT22;12042;52.136;5.584;2022-07-18T13:14:16;34.40;84.30
23723;DHT22;12042;52.136;5.584;2022-07-18T13:16:43;34.50;82.90
23723;DHT22;12042;52.136;5.584;2022-07-18T13:19:11;34.60;82.00
23723;DHT22;12042;52.136;5.584;2022-07-18T13:21:37;34.70;82.60
23723;DHT22;12042;52.136;5.584;2022-07-18T13:24:03;34.80;82.20
23723;DHT22;12042;52.136;5.584;2022-07-18T13:26:29;34.90;81.40
23723;DHT22;12042;52.136;5.584;2022-07-18T13:28:54;35.20;80.20
23723;DHT22;12042;52.136;5.584;2022-07-18T13:31:20;35.40;80.50
23723;DHT22;12042;52.136;5.584;2022-07-18T13:33:46;35.30;79.60
23723;DHT22;12042;52.136;5.584;2022-07-18T13:36:16;35.30;79.70
23723;DHT22;12042;52.136;5.584;2022-07-18T13:38:42;35.40;80.60
23723;DHT22;12042;52.136;5.584;2022-07-18T13:41:09;35.40;82.60
23723;DHT22;12042;52.136;5.584;2022-07-18T13:43:35;35.50;80.60
23723;DHT22;12042;52.136;5.584;2022-07-18T13:46:05;35.60;78.70
23723;DHT22;12042;52.136;5.584;2022-07-18T13:48:30;35.70;79.00
23723;DHT22;12042;52.136;5.584;2022-07-18T13:50:56;35.50;79.60
23723;DHT22;12042;52.136;5.584;2022-07-18T13:53:22;35.50;78.80
23723;DHT22;12042;52.136;5.584;2022-07-18T13:55:47;35.60;78.50
23723;DHT22;12042;52.136;5.584;2022-07-18T13:58:13;35.50;79.30
23723;DHT22;12042;52.136;5.584;2022-07-18T14:00:38;35.50;78.20
23723;DHT22;12042;52.136;5.584;2022-07-18T14:03:04;35.50;76.70
23723;DHT22;12042;52.136;5.584;2022-07-18T14:05:31;35.50;77.60
23723;DHT22;12042;52.136;5.584;2022-07-18T14:07:57;35.60;77.80
23723;DHT22;12042;52.136;5.584;2022-07-18T14:10:22;35.60;78.60
23723;DHT22;12042;52.136;5.584;2022-07-18T14:12:48;35.80;78.10
23723;DHT22;12042;52.136;5.584;2022-07-18T14:15:14;35.80;78.60
23723;DHT22;12042;52.136;5.584;2022-07-18T14:17:40;36.10;78.00
23723;DHT22;12042;52.136;5.584;2022-07-18T14:20:06;36.10;79.00
23723;DHT22;12042;52.136;5.584;2022-07-18T14:22:33;36.00;77.80
23723;DHT22;12042;52.136;5.584;2022-07-18T14:25:00;36.00;78.20
23723;DHT22;12042;52.136;5.584;2022-07-18T14:27:26;36.20;81.00
23723;DHT22;12042;52.136;5.584;2022-07-18T14:29:51;36.20;77.70
23723;DHT22;12042;52.136;5.584;2022-07-18T14:32:17;36.30;77.10
23723;DHT22;12042;52.136;5.584;2022-07-18T14:34:43;36.10;76.50
23723;DHT22;12042;52.136;5.584;2022-07-18T14:37:08;35.90;77.60
23723;DHT22;12042;52.136;5.584;2022-07-18T14:39:34;36.00;76.20
23723;DHT22;12042;52.136;5.584;2022-07-18T14:41:59;36.10;75.90
23723;DHT22;12042;52.136;5.584;2022-07-18T14:44:25;36.30;75.10
23723;DHT22;12042;52.136;5.584;2022-07-18T14:46:52;36.40;72.60
23723;DHT22;12042;52.136;5.584;2022-07-18T14:49:18;36.20;76.50
23723;DHT22;12042;52.136;5.584;2022-07-18T14:51:43;36.30;76.70
23723;DHT22;12042;52.136;5.584;2022-07-18T14:54:09;36.40;75.70
23723;DHT22;12042;52.136;5.584;2022-07-18T14:56:36;36.40;76.10
23723;DHT22;12042;52.136;5.584;2022-07-18T14:59:02;36.30;78.40
23723;DHT22;12042;52.136;5.584;2022-07-18T15:01:29;36.10;75.60
23723;DHT22;12042;52.136;5.584;2022-07-18T15:03:57;35.80;77.10
23723;DHT22;12042;52.136;5.584;2022-07-18T15:06:23;35.60;77.50
23723;DHT22;12042;52.136;5.584;2022-07-18T15:08:48;35.60;81.30
23723;DHT22;12042;52.136;5.584;2022-07-18T15:11:14;35.90;80.00
23723;DHT22;12042;52.136;5.584;2022-07-18T15:13:43;35.90;78.00
23723;DHT22;12042;52.136;5.584;2022-07-18T15:16:09;36.00;77.30
23723;DHT22;12042;52.136;5.584;2022-07-18T15:18:35;35.90;80.30
23723;DHT22;12042;52.136;5.584;2022-07-18T15:21:00;36.10;77.00
23723;DHT22;12042;52.136;5.584;2022-07-18T15:23:26;36.10;76.10
23723;DHT22;12042;52.136;5.584;2022-07-18T15:25:51;36.00;75.10
23723;DHT22;12042;52.136;5.584;2022-07-18T15:28:17;35.50;75.80
23723;DHT22;12042;52.136;5.584;2022-07-18T15:30:43;35.50;77.10
23723;DHT22;12042;52.136;5.584;2022-07-18T15:33:08;35.40;79.00
23723;DHT22;12042;52.136;5.584;2022-07-18T15:35:34;35.60;76.50
23723;DHT22;12042;52.136;5.584;2022-07-18T15:37:59;35.70;75.60
23723;DHT22;12042;52.136;5.584;2022-07-18T15:40:25;35.10;76.60
23723;DHT22;12042;52.136;5.584;2022-07-18T15:42:51;35.40;80.10
23723;DHT22;12042;52.136;5.584;2022-07-18T15:45:17;35.70;78.20
23723;DHT22;12042;52.136;5.584;2022-07-18T15:47:42;35.90;75.90
23723;DHT22;12042;52.136;5.584;2022-07-18T15:50:08;36.00;74.10
23723;DHT22;12042;52.136;5.584;2022-07-18T15:52:34;35.80;72.80
23723;DHT22;12042;52.136;5.584;2022-07-18T15:55:03;35.30;74.70
23723;DHT22;12042;52.136;5.584;2022-07-18T15:57:28;35.50;76.90
23723;DHT22;12042;52.136;5.584;2022-07-18T15:59:54;35.60;72.80
23723;DHT22;12042;52.136;5.584;2022-07-18T16:02:19;35.50;73.80
23723;DHT22;12042;52.136;5.584;2022-07-18T16:04:46;35.50;73.00
23723;DHT22;12042;52.136;5.584;2022-07-18T16:07:11;35.50;74.60
23723;DHT22;12042;52.136;5.584;2022-07-18T16:09:37;35.70;74.40
23723;DHT22;12042;52.136;5.584;2022-07-18T16:12:05;36.10;75.80
23723;DHT22;12042;52.136;5.584;2022-07-18T16:14:32;36.20;77.70
23723;DHT22;12042;52.136;5.584;2022-07-18T16:16:57;36.10;74.80
23723;DHT22;12042;52.136;5.584;2022-07-18T16:19:23;35.60;75.80
23723;DHT22;12042;52.136;5.584;2022-07-18T16:21:48;35.60;77.60
23723;DHT22;12042;52.136;5.584;2022-07-18T16:24:14;35.80;75.90
23723;DHT22;12042;52.136;5.584;2022-07-18T16:26:39;35.60;76.90
23723;DHT22;12042;52.136;5.584;2022-07-18T16:29:05;35.90;75.20
23723;DHT22;12042;52.136;5.584;2022-07-18T16:31:31;35.90;75.60
23723;DHT22;12042;52.136;5.584;2022-07-18T16:33:57;36.00;77.20
23723;DHT22;12042;52.136;5.584;2022-07-18T16:36:22;36.10;77.00
23723;DHT22;12042;52.136;5.584;2022-07-18T16:38:48;36.10;79.20
23723;DHT22;12042;52.136;5.584;2022-07-18T16:41:14;36.00;78.60
23723;DHT22;12042;52.136;5.584;2022-07-18T16:43:40;35.90;78.70
23723;DHT22;12042;52.136;5.584;2022-07-18T16:46:07;36.00;77.80
23723;DHT22;12042;52.136;5.584;2022-07-18T16:48:33;36.10;77.20
23723;DHT22;12042;52.136;5.584;2022-07-18T16:50:59;36.20;79.50
23723;DHT22;12042;52.136;5.584;2022-07-18T16:53:26;36.10;74.60
23723;DHT22;12042;52.136;5.584;2022-07-18T16:55:52;35.90;74.70
23723;DHT22;12042;52.136;5.584;2022-07-18T16:58:18;35.90;74.30
23723;DHT22;12042;52.136;5.584;2022-07-18T17:00:44;35.90;73.50
23723;DHT22;12042;52.136;5.584;2022-07-18T17:03:09;36.10;74.10
23723;DHT22;12042;52.136;5.584;2022-07-18T17:05:35;36.00;73.30
23723;DHT22;12042;52.136;5.584;2022-07-18T17:08:02;35.90;73.20
23723;DHT22;12042;52.136;5.584;2022-07-18T17:10:28;35.80;72.60
23723;DHT22;12042;52.136;5.584;2022-07-18T17:12:54;35.60;74.10
23723;DHT22;12042;52.136;5.584;2022-07-18T17:15:21;35.70;73.60
23723;DHT22;12042;52.136;5.584;2022-07-18T17:17:46;35.50;73.00
23723;DHT22;12042;52.136;5.584;2022-07-18T17:20:13;35.50;75.10
23723;DHT22;12042;52.136;5.584;2022-07-18T17:22:40;35.70;76.10
23723;DHT22;12042;52.136;5.584;2022-07-18T17:25:06;35.90;75.30
23723;DHT22;12042;52.136;5.584;2022-07-18T17:27:33;35.90;75.00
23723;DHT22;12042;52.136;5.584;2022-07-18T17:29:58;36.00;75.20
23723;DHT22;12042;52.136;5.584;2022-07-18T17:32:24;36.10;75.10
23723;DHT22;12042;52.136;5.584;2022-07-18T17:34:52;36.00;73.00
23723;DHT22;12042;52.136;5.584;2022-07-18T17:37:19;35.80;73.50
23723;DHT22;12042;52.136;5.584;2022-07-18T17:39:47;35.70;72.30
23723;DHT22;12042;52.136;5.584;2022-07-18T17:42:15;35.60;72.30
23723;DHT22;12042;52.136;5.584;2022-07-18T17:44:41;35.50;72.50
23723;DHT22;12042;52.136;5.584;2022-07-18T17:47:07;35.40;73.20
23723;DHT22;12042;52.136;5.584;2022-07-18T17:49:33;35.20;73.10
23723;DHT22;12042;52.136;5.584;2022-07-18T17:51:59;35.20;75.00
23723;DHT22;12042;52.136;5.584;2022-07-18T17:54:25;35.10;73.20
23723;DHT22;12042;52.136;5.584;2022-07-18T17:56:51;35.10;73.40
23723;DHT22;12042;52.136;5.584;2022-07-18T17:59:16;35.10;73.30
23723;DHT22;12042;52.136;5.584;2022-07-18T18:01:42;35.10;73.70
23723;DHT22;12042;52.136;5.584;2022-07-18T18:04:08;35.10;73.10
23723;DHT22;12042;52.136;5.584;2022-07-18T18:06:33;34.90;73.90
23723;DHT22;12042;52.136;5.584;2022-07-18T18:08:59;34.90;74.00
23723;DHT22;12042;52.136;5.584;2022-07-18T18:11:25;34.80;74.40
23723;DHT22;12042;52.136;5.584;2022-07-18T18:13:50;34.90;73.00
23723;DHT22;12042;52.136;5.584;2022-07-18T18:16:16;34.40;74.50
23723;DHT22;12042;52.136;5.584;2022-07-18T18:18:42;34.80;75.30
23723;DHT22;12042;52.136;5.584;2022-07-18T18:21:07;34.60;75.00
23723;DHT22;12042;52.136;5.584;2022-07-18T18:23:33;34.50;75.60
23723;DHT22;12042;52.136;5.584;2022-07-18T18:26:00;34.60;76.10
23723;DHT22;12042;52.136;5.584;2022-07-18T18:28:25;34.60;78.60
23723;DHT22;12042;52.136;5.584;2022-07-18T18:30:53;34.40;78.10
23723;DHT22;12042;52.136;5.584;2022-07-18T18:33:18;34.30;76.40
23723;DHT22;12042;52.136;5.584;2022-07-18T18:35:51;34.20;76.50
23723;DHT22;12042;52.136;5.584;2022-07-18T18:38:17;34.10;77.50
23723;DHT22;12042;52.136;5.584;2022-07-18T18:40:43;34.00;77.80
23723;DHT22;12042;52.136;5.584;2022-07-18T18:43:09;33.70;79.40
23723;DHT22;12042;52.136;5.584;2022-07-18T18:45:55;33.40;82.50
23723;DHT22;12042;52.136;5.584;2022-07-18T18:48:44;33.20;84.80
23723;DHT22;12042;52.136;5.584;2022-07-18T18:51:13;32.90;84.00
23723;DHT22;12042;52.136;5.584;2022-07-18T18:53:41;32.80;83.90
23723;DHT22;12042;52.136;5.584;2022-07-18T18:56:07;32.80;85.00
23723;DHT22;12042;52.136;5.584;2022-07-18T18:58:32;32.60;85.20
23723;DHT22;12042;52.136;5.584;2022-07-18T19:00:58;32.30;83.40
23723;DHT22;12042;52.136;5.584;2022-07-18T19:03:24;32.30;83.30
23723;DHT22;12042;52.136;5.584;2022-07-18T19:05:50;32.50;84.70
23723;DHT22;12042;52.136;5.584;2022-07-18T19:08:15;31.90;83.40
23723;DHT22;12042;52.136;5.584;2022-07-18T19:10:43;31.80;84.30
23723;DHT22;12042;52.136;5.584;2022-07-18T19:13:11;31.80;88.00
23723;DHT22;12042;52.136;5.584;2022-07-18T19:15:36;31.60;87.60
23723;DHT22;12042;52.136;5.584;2022-07-18T19:18:02;31.60;89.50
23723;DHT22;12042;52.136;5.584;2022-07-18T19:20:28;31.50;90.50
23723;DHT22;12042;52.136;5.584;2022-07-18T19:22:53;31.70;89.50
23723;DHT22;12042;52.136;5.584;2022-07-18T19:25:19;31.60;89.30
23723;DHT22;12042;52.136;5.584;2022-07-18T19:27:47;31.40;90.90
23723;DHT22;12042;52.136;5.584;2022-07-18T19:30:13;31.30;91.00
23723;DHT22;12042;52.136;5.584;2022-07-18T19:32:39;31.30;91.70
23723;DHT22;12042;52.136;5.584;2022-07-18T19:35:04;31.30;90.20
23723;DHT22;12042;52.136;5.584;2022-07-18T19:37:30;31.00;90.40
23723;DHT22;12042;52.136;5.584;2022-07-18T19:39:57;31.00;90.50
23723;DHT22;12042;52.136;5.584;2022-07-18T19:42:24;30.70;90.70
23723;DHT22;12042;52.136;5.584;2022-07-18T19:44:49;30.60;91.60
23723;DHT22;12042;52.136;5.584;2022-07-18T19:47:15;30.50;91.90
23723;DHT22;12042;52.136;5.584;2022-07-18T19:49:40;30.30;92.20
23723;DHT22;12042;52.136;5.584;2022-07-18T19:52:06;29.80;92.40
23723;DHT22;12042;52.136;5.584;2022-07-18T19:54:37;30.00;92.40
23723;DHT22;12042;52.136;5.584;2022-07-18T19:57:03;29.80;92.90
23723;DHT22;12042;52.136;5.584;2022-07-18T19:59:29;29.80;93.10
23723;DHT22;12042;52.136;5.584;2022-07-18T20:01:55;29.80;93.80
23723;DHT22;12042;52.136;5.584;2022-07-18T20:04:21;30.00;93.50
23723;DHT22;12042;52.136;5.584;2022-07-18T20:06:46;29.70;92.90
23723;DHT22;12042;52.136;5.584;2022-07-18T20:09:12;29.50;94.00
23723;DHT22;12042;52.136;5.584;2022-07-18T20:11:39;29.40;94.00
23723;DHT22;12042;52.136;5.584;2022-07-18T20:14:05;29.40;93.80
23723;DHT22;12042;52.136;5.584;2022-07-18T20:16:31;29.20;93.60
23723;DHT22;12042;52.136;5.584;2022-07-18T20:18:56;29.00;93.60
23723;DHT22;12042;52.136;5.584;2022-07-18T20:21:22;29.30;94.30
23723;DHT22;12042;52.136;5.584;2022-07-18T20:23:47;29.00;94.20
23723;DHT22;12042;52.136;5.584;2022-07-18T20:26:13;29.10;94.60
23723;DHT22;12042;52.136;5.584;2022-07-18T20:28:39;29.30;94.70
23723;DHT22;12042;52.136;5.584;2022-07-18T20:31:04;29.00;95.30
23723;DHT22;12042;52.136;5.584;2022-07-18T20:33:30;28.80;94.50
23723;DHT22;12042;52.136;5.584;2022-07-18T20:35:55;28.60;95.20
23723;DHT22;12042;52.136;5.584;2022-07-18T20:38:21;28.50;95.50
23723;DHT22;12042;52.136;5.584;2022-07-18T20:40:46;28.50;95.90
23723;DHT22;12042;52.136;5.584;2022-07-18T20:43:12;28.40;96.10
